Juneau, AK

3:53 PM AKDT on June 26, 2017 (GMT -0800)
Tamarack Trails | | Change Station

Elev 190 ft 58.35 °N, 134.49 °W | Updated 21 seconds ago

Light Drizzle
Light Drizzle Mist
52.7 °F
Feels Like 52.7 °F
N
0.0
Wind Variable Wind from WSW
Gusts 0.0 mph

Today
High -- | Low -- °F
--% Chance of Precip.
Yesterday
High -- | Low -- °F
Precip. -- in
Pressure 30.05 in
Visibility 2.5 miles
Clouds Few 600 ft
Overcast 1700 ft
Dew Point 52 °F
Humidity 99%
Rainfall 0.05 in
Snow Depth Not available.
3:53 AM 10:08 PM
Waxing Crescent, 12% visible
SPECI PAJN 262256Z 06007KT 2 1/2SM -DZ BR FEW006 OVC017 11/11 A3005 RMK AO2 SFC VIS 3 P0000 T01110111
Pressure 30.05 in
Visibility 2.5 miles
Clouds Few 600 ft
Overcast 1700 ft
Dew Point 52 °F
Humidity 99%
Rainfall 0.05 in
Snow Depth Not available.
3:53 AM 10:08 PM
Waxing Crescent, 12% visible
SPECI PAJN 262256Z 06007KT 2 1/2SM -DZ BR FEW006 OVC017 11/11 A3005 RMK AO2 SFC VIS 3 P0000 T01110111

Get Severe Weather Alerts

Thanks for signing up!

Be on the lookout for a verification email in your inbox.

You'll start receiving the daily forecast at 6 AM.

×

10-Day Weather Forecast

Almanac

Astronomy

Jun. 26, 2017 Rise Set
Actual Time
Civil Twilight
Nautical Twilight
Astronomical Twilight
Moon
Length of Visible Light
Length of Day
Tomorrow will be .
, % of the Moon is Illuminated

Today's Extremes

State Highs State Lows

Community

WunderPhotos

Category 6

Welcome to Category 6. This is the collective home for Weather Underground's featured writeups by Dr. Jeff Masters (right), Bob Henson (left), Chris Burt, and other regular contributors.

Nearby

Air Quality

  Air Quality AQ Index Pollutant
Not available.

Snow Depth

Station Depth Elevation

Earthquake Activity

City Distance Mag. Time & Date
Minimum magnitude displayed is 2.5.

Coastal Water Temperatures

Place Temperature

Stations

Nearby Weather Stations

Station Location Temp. Windchill Dew Point Humidity Wind Precip. Elev Updated Type
                   

Watches & Warnings

There are currently no watches in effect.